CheckWX is a tool to help pilots better visualize weather data.  It is not intended as a substitute for an official pre-flight weather briefing.

19:21:04 UTC

KLGA METAR
Laguardia Airport
New York, New York, USA
Current

30 mins ago

KLGA 201851Z 33011KT 10SM FEW036 BKN065 OVC250 08/M02 A2995 RMK AO2 SLP140 T00831022
Observed
Nov-20 @ 18:51 UTC
Wind
  • 330° at 11 KTS
Visibility
10 SM
Flight Rules
VFR
Cloud Levels
  • Few at 3,600' AGL
  • Broken at 6,500' AGL
  • Overcast at 25,000' AGL
Temperature
C / 46°F
Dewpoint
-2°C / 28°F
Humidity
50%
Altimeter
29.95" Hg
Pressure
1014.22 hPa
Previous

2 hours ago

KLGA 201751Z 33011KT 10SM BKN033 BKN060 BKN160 07/M01 A2994 RMK AO2 SLP139 T00721006 10072 20050 58001
Observed
Nov-20 @ 17:51 UTC
Wind
  • 330° at 11 KTS
Visibility
10 SM
Flight Rules
VFR
Cloud Levels
  • Broken at 3,300' AGL
  • Broken at 6,000' AGL
  • Broken at 16,000' AGL
Temperature
C / 45°F
Dewpoint
-1°C / 30°F
Humidity
57%
Altimeter
29.94" Hg
Pressure
1013.92 hPa
Previous

2 hours ago

KLGA 201710Z 32015KT 10SM BKN031 BKN055 OVC140 07/M01 A2994 RMK AO2 T00671011
Observed
Nov-20 @ 17:10 UTC
Wind
  • 320° at 15 KTS
Visibility
10 SM
Flight Rules
VFR
Cloud Levels
  • Broken at 3,100' AGL
  • Broken at 5,500' AGL
  • Overcast at 14,000' AGL
Temperature
C / 45°F
Dewpoint
-1°C / 30°F
Humidity
57%
Altimeter
29.94" Hg
Pressure
1013.92 hPa